Time;durP1;ratioP1;P1;durP2;ratioP2;P2;SDS_P1;SDS_P2;PMS_P1;PMS_P2;Temp;Humidity;BMP_temperature;BMP_pressure;BME280_temperature;BME280_humidity;BME280_pressure;Samples;Min_cycle;Max_cycle;Signal;HPM_P1;HPM_P2
2021/05/04 00:01:32;;;;;;;5.25;3.47;;;;;;;5.94;63.57;95612.69;5010926;28;20054;-45
2021/05/04 00:03:59;;;;;;;3.92;2.80;;;;;;;5.97;63.58;95612.09;5011309;28;20069;-47
2021/05/04 00:06:25;;;;;;;5.30;2.97;;;;;;;5.86;63.71;95606.19;5012438;28;20120;-45
2021/05/04 00:08:52;;;;;;;5.50;3.20;;;;;;;5.82;64.26;95599.84;5015339;28;20068;-47
2021/05/04 00:11:18;;;;;;;6.70;3.10;;;;;;;5.85;64.49;95597.34;5015412;28;20050;-47
2021/05/04 00:13:45;;;;;;;4.80;3.58;;;;;;;5.91;65.36;95594.50;5015162;28;20058;-48
2021/05/04 00:16:11;;;;;;;6.28;3.30;;;;;;;5.80;64.49;95589.41;5014957;28;20057;-49
2021/05/04 00:18:37;;;;;;;4.47;3.35;;;;;;;5.71;65.18;95583.19;5014635;28;20057;-45
2021/05/04 00:21:04;;;;;;;5.63;3.10;;;;;;;5.75;65.32;95592.25;5014784;28;20053;-44
2021/05/04 00:23:31;;;;;;;4.28;3.05;;;;;;;5.88;64.83;95584.38;5015017;28;20046;-50
2021/05/04 00:26:05;;;;;;;4.40;2.90;;;;;;;5.80;66.62;95580.56;5006332;28;20042;-44
2021/05/04 00:28:31;;;;;;;3.92;3.10;;;;;;;5.90;67.17;95580.28;5011279;28;20050;-49
2021/05/04 00:30:58;;;;;;;3.75;3.08;;;;;;;6.02;67.04;95577.84;4995516;28;20043;-45
2021/05/04 00:33:24;;;;;;;3.92;3.10;;;;;;;5.74;66.49;95579.13;4996141;28;20133;-45
2021/05/04 00:35:51;;;;;;;4.63;3.08;;;;;;;5.75;66.13;95570.75;4996245;28;20065;-45
2021/05/04 00:38:18;;;;;;;5.50;3.13;;;;;;;5.68;67.07;95565.03;4991459;28;20046;-46
2021/05/04 00:40:45;;;;;;;5.18;3.30;;;;;;;5.80;66.38;95575.19;4996176;28;20050;-44
2021/05/04 00:43:12;;;;;;;3.78;2.78;;;;;;;5.78;67.57;95567.44;4996756;28;20065;-45
2021/05/04 00:45:38;;;;;;;3.88;3.20;;;;;;;5.82;67.13;95557.69;4994763;28;20058;-48
2021/05/04 00:48:05;;;;;;;4.68;2.97;;;;;;;5.74;67.22;95571.06;5010668;28;20057;-46
2021/05/04 00:50:32;;;;;;;5.00;3.13;;;;;;;5.73;67.22;95559.53;4995922;28;20050;-45
2021/05/04 00:52:58;;;;;;;5.95;2.97;;;;;;;5.76;66.52;95548.19;4995101;28;20124;-50
2021/05/04 00:55:26;;;;;;;5.15;3.08;;;;;;;5.71;66.53;95547.53;4995462;28;20050;-46
2021/05/04 00:57:55;;;;;;;4.68;3.20;;;;;;;5.68;66.73;95548.13;5003977;28;20049;-51
2021/05/04 01:00:21;;;;;;;4.10;3.05;;;;;;;5.70;67.08;95544.03;5016616;28;20053;-45
2021/05/04 01:02:48;;;;;;;4.05;2.60;;;;;;;5.73;66.72;95535.38;5016787;28;20050;-49
2021/05/04 01:05:16;;;;;;;4.35;2.97;;;;;;;5.67;66.23;95536.63;5015645;28;20050;-45
2021/05/04 01:07:42;;;;;;;4.28;2.80;;;;;;;5.73;65.62;95526.53;5012275;28;20849;-45
2021/05/04 01:10:09;;;;;;;3.78;2.70;;;;;;;5.70;66.23;95525.25;4998532;28;20058;-49
2021/05/04 01:12:36;;;;;;;5.50;3.20;;;;;;;5.66;65.97;95518.94;4997735;28;20419;-47
2021/05/04 01:15:04;;;;;;;3.53;2.88;;;;;;;5.79;66.15;95520.72;5018693;23;20053;-45
2021/05/04 01:17:31;;;;;;;4.63;2.90;;;;;;;5.78;65.94;95524.47;5032141;28;20046;-49
2021/05/04 01:20:07;;;;;;;5.30;2.70;;;;;;;5.73;66.38;95515.81;5031193;28;20050;-45
2021/05/04 01:22:34;;;;;;;27.10;5.70;;;;;;;5.62;65.71;95509.91;5032955;28;20053;-46
2021/05/04 01:25:15;;;;;;;3.95;2.42;;;;;;;5.52;66.33;95516.34;5018833;28;20050;-47
2021/05/04 01:27:42;;;;;;;4.22;2.60;;;;;;;5.57;66.31;95520.78;5018413;28;20064;-51
2021/05/04 01:30:10;;;;;;;3.88;2.75;;;;;;;5.53;66.87;95511.78;5033455;28;20056;-49
2021/05/04 01:32:37;;;;;;;5.82;2.60;;;;;;;5.55;66.46;95514.94;5033811;28;20045;-46
2021/05/04 01:35:06;;;;;;;3.85;2.75;;;;;;;5.60;66.60;95506.75;5031917;28;20091;-46
2021/05/04 01:37:32;;;;;;;6.00;2.83;;;;;;;5.45;67.03;95501.78;5013248;28;20061;-44
2021/05/04 01:39:59;;;;;;;3.80;2.92;;;;;;;5.53;67.23;95509.09;5011866;28;20125;-46
2021/05/04 01:42:26;;;;;;;4.18;2.70;;;;;;;5.37;67.11;95508.72;5013312;28;20422;-46
2021/05/04 01:44:52;;;;;;;4.90;2.88;;;;;;;5.41;67.73;95504.31;5013170;28;20062;-47
2021/05/04 01:47:19;;;;;;;5.38;2.83;;;;;;;5.38;67.82;95494.97;5020996;28;20134;-46
2021/05/04 01:49:47;;;;;;;3.90;2.78;;;;;;;5.31;67.16;95496.53;5013427;28;20103;-48
2021/05/04 01:52:14;;;;;;;3.72;2.70;;;;;;;5.36;67.86;95505.25;5013456;28;20054;-46
2021/05/04 01:54:42;;;;;;;4.05;2.88;;;;;;;5.34;67.82;95499.38;5013006;28;20053;-46
2021/05/04 01:57:09;;;;;;;4.40;3.15;;;;;;;5.35;67.81;95500.19;5026538;28;20411;-46
2021/05/04 01:59:36;;;;;;;4.95;3.10;;;;;;;5.34;67.87;95491.34;5013311;28;20050;-49
2021/05/04 02:02:03;;;;;;;3.83;2.85;;;;;;;5.28;68.12;95484.53;5012852;28;20108;-46
2021/05/04 02:04:30;;;;;;;4.18;2.80;;;;;;;5.34;67.60;95501.28;5012948;28;20196;-47
2021/05/04 02:06:59;;;;;;;4.43;3.17;;;;;;;5.29;68.18;95493.34;5012213;28;20133;-47
2021/05/04 02:09:25;;;;;;;4.45;2.80;;;;;;;5.34;68.23;95494.03;5027888;28;20057;-45
2021/05/04 02:11:52;;;;;;;4.20;2.80;;;;;;;5.27;68.36;95488.31;5013064;28;20050;-47
2021/05/04 02:14:19;;;;;;;4.15;3.03;;;;;;;5.46;68.69;95485.41;5011500;28;20129;-45
2021/05/04 02:16:45;;;;;;;4.20;2.60;;;;;;;5.24;68.14;95488.16;5012116;28;20053;-55
2021/05/04 02:19:12;;;;;;;3.55;2.60;;;;;;;5.19;68.37;95481.00;5012948;28;20535;-46
2021/05/04 02:21:38;;;;;;;4.88;3.00;;;;;;;5.16;68.53;95478.94;5012526;28;20136;-46
2021/05/04 02:24:05;;;;;;;3.97;2.58;;;;;;;5.24;68.19;95470.16;5022862;28;20423;-47
2021/05/04 02:26:47;;;;;;;4.10;2.80;;;;;;;5.16;68.70;95469.00;5031983;28;20061;-50
2021/05/04 02:29:14;;;;;;;5.68;3.33;;;;;;;5.24;68.25;95464.00;5012209;28;20084;-44
2021/05/04 02:31:40;;;;;;;4.43;3.05;;;;;;;5.24;69.47;95472.06;5011655;28;20053;-47
2021/05/04 02:34:07;;;;;;;4.30;3.15;;;;;;;5.23;68.27;95465.09;5012447;28;20076;-46
2021/05/04 02:36:33;;;;;;;6.82;3.28;;;;;;;5.30;70.44;95458.19;5011760;28;20113;-47
2021/05/04 02:39:00;;;;;;;7.55;3.30;;;;;;;5.34;69.23;95453.00;5012361;28;20099;-46
2021/05/04 02:41:27;;;;;;;5.03;2.80;;;;;;;5.31;68.51;95448.25;5012400;28;20124;-46
2021/05/04 02:43:53;;;;;;;4.55;2.95;;;;;;;5.56;68.10;95444.09;5012161;28;20423;-45
2021/05/04 02:46:20;;;;;;;3.90;2.80;;;;;;;5.31;67.67;95441.00;5012322;28;20061;-49
2021/05/04 02:48:47;;;;;;;3.78;2.42;;;;;;;5.39;67.99;95442.94;5010974;28;20057;-47
2021/05/04 02:51:14;;;;;;;4.10;2.50;;;;;;;5.30;67.71;95439.41;5010738;28;20514;-46
2021/05/04 02:53:40;;;;;;;4.60;3.08;;;;;;;5.25;67.91;95436.88;5010503;28;20056;-49
2021/05/04 02:56:07;;;;;;;5.30;2.70;;;;;;;5.25;68.04;95431.50;5011902;28;20046;-49
2021/05/04 02:58:35;;;;;;;4.45;3.03;;;;;;;5.28;67.26;95425.53;5024863;28;20123;-46
2021/05/04 03:01:03;;;;;;;3.63;2.45;;;;;;;5.24;67.25;95427.25;5014319;28;20049;-46
2021/05/04 03:03:30;;;;;;;3.78;2.50;;;;;;;5.18;67.21;95425.81;5030891;28;20053;-48
2021/05/04 03:05:56;;;;;;;4.50;3.08;;;;;;;5.19;67.69;95426.59;5024365;28;20050;-45
2021/05/04 03:08:24;;;;;;;5.13;2.95;;;;;;;5.14;67.71;95422.16;5011643;28;20060;-46
2021/05/04 03:10:50;;;;;;;4.47;2.95;;;;;;;5.17;68.04;95429.59;5011743;28;20128;-44
2021/05/04 03:13:24;;;;;;;4.47;2.88;;;;;;;5.18;68.25;95420.44;5014528;28;20048;-47
2021/05/04 03:15:52;;;;;;;4.05;2.90;;;;;;;5.13;68.17;95409.84;5030470;28;20080;-47
2021/05/04 03:18:19;;;;;;;5.65;3.22;;;;;;;5.11;68.63;95420.09;5031235;28;20054;-46
2021/05/04 03:20:48;;;;;;;4.53;2.70;;;;;;;5.12;67.51;95413.63;5031484;28;20053;-45
2021/05/04 03:23:16;;;;;;;4.72;2.40;;;;;;;5.10;68.19;95408.59;5027563;28;20050;-45
2021/05/04 03:25:42;;;;;;;3.95;2.83;;;;;;;5.14;68.14;95403.41;5011487;28;20499;-47
2021/05/04 03:28:09;;;;;;;3.92;2.53;;;;;;;5.11;68.41;95406.69;5011088;28;20064;-44
2021/05/04 03:30:37;;;;;;;4.43;2.75;;;;;;;5.14;68.19;95398.03;5011621;28;20045;-45
2021/05/04 03:33:04;;;;;;;5.35;2.83;;;;;;;5.14;67.58;95403.41;5010098;28;20076;-46
2021/05/04 03:35:31;;;;;;;4.93;2.90;;;;;;;5.16;67.30;95399.28;5011848;28;20053;-49
2021/05/04 03:37:58;;;;;;;3.92;3.05;;;;;;;5.11;68.35;95394.06;5010893;28;20057;-48
2021/05/04 03:40:24;;;;;;;5.30;2.63;;;;;;;5.15;67.82;95396.91;5011380;28;20049;-48
2021/05/04 03:42:51;;;;;;;3.75;2.58;;;;;;;5.15;67.44;95402.28;5015067;28;20137;-46
2021/05/04 03:45:18;;;;;;;4.28;2.40;;;;;;;5.16;67.19;95401.16;5027737;28;20336;-47
2021/05/04 03:47:45;;;;;;;3.90;2.50;;;;;;;5.14;67.44;95396.13;5035030;28;20076;-47
2021/05/04 03:50:17;;;;;;;4.68;2.80;;;;;;;5.18;67.41;95392.84;5033693;28;20060;-48
2021/05/04 03:52:44;;;;;;;4.72;2.70;;;;;;;5.24;67.40;95396.97;5022414;28;20056;-47
2021/05/04 03:55:11;;;;;;;3.50;2.58;;;;;;;5.14;66.91;95389.97;5015082;28;20058;-47
2021/05/04 03:57:37;;;;;;;2.92;2.30;;;;;;;5.19;66.68;95395.19;5014972;28;20049;-47
2021/05/04 04:00:06;;;;;;;3.47;2.40;;;;;;;5.11;66.51;95391.38;5014847;28;20053;-44
2021/05/04 04:02:34;;;;;;;5.57;2.80;;;;;;;5.14;67.44;95395.34;5014978;28;20085;-58
2021/05/04 04:05:01;;;;;;;3.65;2.50;;;;;;;5.28;67.11;95397.91;5014717;28;20061;-46
2021/05/04 04:07:31;;;;;;;5.47;2.83;;;;;;;5.18;66.79;95393.63;5014574;28;20054;-49
2021/05/04 04:09:57;;;;;;;3.78;2.42;;;;;;;5.21;67.53;95393.00;5014690;28;20057;-46
2021/05/04 04:12:24;;;;;;;3.53;2.25;;;;;;;5.26;66.84;95386.69;5014842;28;20454;-46
2021/05/04 04:14:53;;;;;;;4.15;2.50;;;;;;;5.23;66.65;95380.09;5014542;28;20080;-47
2021/05/04 04:17:20;;;;;;;4.82;2.65;;;;;;;5.26;66.65;95384.00;5012810;28;20068;-46
2021/05/04 04:19:47;;;;;;;4.63;2.95;;;;;;;5.30;66.47;95375.03;5014659;28;20076;-48
2021/05/04 04:22:14;;;;;;;8.40;2.60;;;;;;;5.36;66.94;95383.72;5013415;28;20060;-45
2021/05/04 04:24:41;;;;;;;4.43;2.80;;;;;;;5.45;66.86;95381.84;5012432;28;20564;-46
2021/05/04 04:27:08;;;;;;;5.50;2.60;;;;;;;5.49;65.19;95382.00;5013005;28;20519;-45
2021/05/04 04:29:35;;;;;;;4.65;2.63;;;;;;;5.61;65.55;95379.50;5013991;28;20041;-45
2021/05/04 04:32:03;;;;;;;4.85;2.72;;;;;;;5.67;64.28;95380.16;5012546;28;20054;-45
2021/05/04 04:34:30;;;;;;;4.35;2.75;;;;;;;5.81;64.28;95378.91;5013977;28;20112;-45
2021/05/04 04:36:56;;;;;;;6.15;2.72;;;;;;;5.84;62.88;95380.94;5023515;28;20081;-49
2021/05/04 04:39:23;;;;;;;4.82;2.67;;;;;;;5.94;62.87;95381.78;5032827;28;20572;-45
2021/05/04 04:41:49;;;;;;;5.55;2.47;;;;;;;6.01;62.37;95382.09;5033720;28;20064;-46
2021/05/04 04:44:16;;;;;;;4.57;2.90;;;;;;;6.05;61.97;95380.38;5033522;28;20064;-47
2021/05/04 04:46:44;;;;;;;5.47;2.90;;;;;;;6.13;62.05;95378.78;5021535;28;20061;-48
2021/05/04 04:49:13;;;;;;;4.20;2.92;;;;;;;6.20;62.02;95373.72;5013940;28;20141;-47
2021/05/04 04:51:42;;;;;;;5.78;2.50;;;;;;;6.43;60.58;95382.38;5012555;28;20108;-45
2021/05/04 04:54:09;;;;;;;5.28;2.88;;;;;;;6.40;60.89;95377.63;5011896;28;20462;-46
2021/05/04 04:56:36;;;;;;;5.55;2.67;;;;;;;6.41;60.79;95371.97;5012914;28;20664;-45
2021/05/04 04:59:04;;;;;;;4.38;2.42;;;;;;;6.46;60.26;95381.75;5013304;28;20463;-45
2021/05/04 05:01:35;;;;;;;6.15;2.90;;;;;;;6.46;60.35;95379.06;5012615;28;20052;-47
2021/05/04 05:04:04;;;;;;;5.25;2.60;;;;;;;6.53;59.61;95374.78;5013651;28;20057;-47
2021/05/04 05:06:32;;;;;;;4.68;2.85;;;;;;;6.56;59.86;95365.28;5012744;28;20533;-45
2021/05/04 05:08:59;;;;;;;6.20;3.22;;;;;;;6.67;59.25;95365.75;5012659;28;20068;-47
2021/05/04 05:11:25;;;;;;;5.47;3.00;;;;;;;6.76;58.45;95367.28;5028637;28;20501;-46
2021/05/04 05:13:52;;;;;;;4.28;2.50;;;;;;;6.85;58.21;95364.56;5013862;28;20064;-47
2021/05/04 05:16:21;;;;;;;6.78;2.75;;;;;;;7.01;56.76;95365.59;5012403;28;20046;-48
2021/05/04 05:18:53;;;;;;;4.63;2.80;;;;;;;7.10;56.73;95367.47;5013446;28;20076;-47
2021/05/04 05:21:20;;;;;;;8.10;2.78;;;;;;;7.33;55.12;95368.00;5013055;28;20054;-48
2021/05/04 05:23:48;;;;;;;5.22;2.60;;;;;;;7.48;54.56;95362.06;5012696;28;20068;-47
2021/05/04 05:26:17;;;;;;;3.78;2.40;;;;;;;7.75;57.16;95357.28;5030507;28;20085;-46
2021/05/04 05:28:44;;;;;;;3.45;2.22;;;;;;;7.89;53.66;95355.13;5016897;28;20065;-47
2021/05/04 05:31:11;;;;;;;5.15;2.47;;;;;;;8.05;52.64;95347.22;5013090;28;20499;-47
2021/05/04 05:33:39;;;;;;;4.07;2.33;;;;;;;8.29;52.16;95338.47;5011767;28;20364;-46
2021/05/04 05:36:05;;;;;;;3.28;2.15;;;;;;;8.36;52.33;95344.09;5012880;28;20119;-48
2021/05/04 05:38:35;;;;;;;3.60;2.30;;;;;;;8.37;51.90;95332.19;5020693;28;20061;-45
2021/05/04 05:41:03;;;;;;;3.25;2.10;;;;;;;8.53;51.79;95338.56;5013041;28;20093;-47
2021/05/04 05:43:30;;;;;;;2.97;1.92;;;;;;;8.58;50.43;95332.97;5012777;28;20454;-46
2021/05/04 05:45:57;;;;;;;3.08;2.22;;;;;;;8.61;50.23;95335.00;5012379;28;20050;-48
2021/05/04 05:48:24;;;;;;;3.10;1.95;;;;;;;8.80;49.97;95330.97;5012546;28;20050;-51
2021/05/04 05:50:50;;;;;;;3.25;2.00;;;;;;;8.88;49.72;95324.69;5012876;28;20046;-51
2021/05/04 05:53:18;;;;;;;2.90;2.08;;;;;;;9.02;49.16;95329.75;5011657;28;20161;-47
2021/05/04 05:55:45;;;;;;;5.20;2.20;;;;;;;9.20;48.80;95324.94;5012886;28;20050;-46
2021/05/04 05:58:11;;;;;;;4.55;2.47;;;;;;;9.27;48.25;95325.16;5011808;28;20415;-48
2021/05/04 06:00:39;;;;;;;4.55;2.13;;;;;;;9.44;47.88;95321.44;5015993;28;20049;-44
2021/05/04 06:03:05;;;;;;;3.63;2.10;;;;;;;9.38;46.83;95320.88;5051124;28;20052;-48
2021/05/04 06:05:33;;;;;;;3.33;1.88;;;;;;;9.45;46.79;95318.38;5042554;28;20064;-48
2021/05/04 06:08:01;;;;;;;3.28;2.00;;;;;;;9.43;46.84;95323.34;5031019;28;20072;-47
2021/05/04 06:10:28;;;;;;;3.05;1.90;;;;;;;9.53;47.09;95320.19;5030953;28;20578;-48
2021/05/04 06:13:06;;;;;;;4.72;2.28;;;;;;;9.52;46.84;95324.03;5027905;28;20045;-51
2021/05/04 06:15:35;;;;;;;2.70;2.03;;;;;;;9.53;46.74;95320.19;5012503;28;20058;-44
2021/05/04 06:18:02;;;;;;;2.80;2.10;;;;;;;9.59;46.39;95316.13;5010551;28;20107;-47
2021/05/04 06:20:29;;;;;;;4.93;3.05;;;;;;;9.68;46.02;95317.91;5012309;28;20045;-45
2021/05/04 06:22:56;;;;;;;3.22;1.98;;;;;;;9.69;46.16;95325.66;5011209;28;20164;-46
2021/05/04 06:25:22;;;;;;;2.70;1.85;;;;;;;9.74;45.92;95313.84;5011424;28;20052;-44
2021/05/04 06:27:53;;;;;;;3.30;1.88;;;;;;;9.77;45.90;95322.03;5011082;28;20046;-45
2021/05/04 06:30:21;;;;;;;4.35;2.20;;;;;;;9.89;46.68;95320.44;5011911;28;20053;-44
2021/05/04 06:32:48;;;;;;;4.22;2.30;;;;;;;9.84;45.99;95311.44;5011993;28;20053;-45
2021/05/04 06:35:20;;;;;;;3.05;2.08;;;;;;;9.88;46.62;95310.75;5012149;28;20074;-46
2021/05/04 06:37:47;;;;;;;2.67;2.00;;;;;;;9.96;46.39;95305.22;5010769;28;20129;-44
2021/05/04 06:40:15;;;;;;;3.60;1.95;;;;;;;10.06;46.03;95304.72;5010682;28;20138;-48
2021/05/04 06:42:42;;;;;;;3.42;1.92;;;;;;;10.13;45.83;95300.66;5011848;28;20049;-47
2021/05/04 06:45:09;;;;;;;3.35;1.98;;;;;;;10.19;45.71;95305.47;5012103;28;20065;-48
2021/05/04 06:47:35;;;;;;;2.70;2.00;;;;;;;10.24;45.79;95301.75;5011040;28;20053;-46
2021/05/04 06:50:04;;;;;;;3.85;2.28;;;;;;;10.25;45.48;95287.06;5012130;28;20438;-48
2021/05/04 06:52:33;;;;;;;3.28;2.15;;;;;;;10.36;45.52;95293.56;5010296;28;20061;-47
2021/05/04 06:54:59;;;;;;;5.65;2.10;;;;;;;10.56;45.32;95291.00;5029272;28;20049;-49
2021/05/04 06:57:27;;;;;;;3.53;2.30;;;;;;;10.50;46.05;95280.44;5028520;28;20046;-48
2021/05/04 06:59:54;;;;;;;4.68;2.13;;;;;;;10.64;44.76;95281.94;5030284;28;20128;-49
2021/05/04 07:02:21;;;;;;;3.85;2.20;;;;;;;10.63;44.41;95281.16;5012792;28;20494;-47
2021/05/04 07:04:48;;;;;;;6.00;2.42;;;;;;;10.72;44.33;95273.66;5031000;28;20053;-47
2021/05/04 07:07:14;;;;;;;4.35;2.40;;;;;;;10.88;44.52;95287.16;5026262;28;20480;-47
2021/05/04 07:09:42;;;;;;;4.75;2.65;;;;;;;10.99;44.20;95277.41;5011074;28;20058;-48
2021/05/04 07:12:09;;;;;;;3.20;2.25;;;;;;;11.07;43.83;95261.31;5011455;28;20061;-48
2021/05/04 07:14:35;;;;;;;4.72;2.22;;;;;;;11.14;43.20;95266.88;5019872;28;20056;-47
2021/05/04 07:17:09;;;;;;;6.00;3.05;;;;;;;11.20;44.33;95265.47;5031523;28;20107;-49
2021/05/04 07:19:39;;;;;;;10.90;2.83;;;;;;;11.35;42.46;95270.09;5049066;28;20053;-46
2021/05/04 07:22:10;;;;;;;3.88;2.10;;;;;;;11.35;42.01;95261.97;5045227;28;20065;-48
2021/05/04 07:24:38;;;;;;;4.53;2.20;;;;;;;11.43;42.09;95266.38;5041531;28;20056;-45
2021/05/04 07:27:06;;;;;;;4.32;2.08;;;;;;;11.60;41.87;95267.94;5047660;28;20071;-45
2021/05/04 07:29:35;;;;;;;3.28;2.08;;;;;;;11.71;42.06;95270.88;5036679;28;20079;-48
2021/05/04 07:32:03;;;;;;;3.33;2.30;;;;;;;11.57;42.17;95268.66;5034520;28;20452;-47
2021/05/04 07:34:30;;;;;;;3.90;2.42;;;;;;;11.75;40.91;95260.88;5036358;28;20091;-50
2021/05/04 07:36:57;;;;;;;5.13;2.40;;;;;;;11.87;41.15;95254.56;5053615;28;20049;-45
2021/05/04 07:39:23;;;;;;;3.72;1.73;;;;;;;11.89;41.41;95263.13;5028559;28;20061;-45
2021/05/04 07:41:50;;;;;;;2.92;2.10;;;;;;;12.13;40.40;95256.63;5033449;28;20057;-44
2021/05/04 07:44:16;;;;;;;3.95;2.08;;;;;;;12.15;40.33;95257.84;5039539;28;20514;-44
2021/05/04 07:46:43;;;;;;;4.07;2.50;;;;;;;12.22;40.01;95264.53;5039131;28;20773;-43
2021/05/04 07:49:17;;;;;;;4.85;2.40;;;;;;;12.36;40.37;95262.09;5049509;28;20521;-45
2021/05/04 07:51:43;;;;;;;3.15;2.25;;;;;;;12.37;41.37;95256.28;5033863;28;20048;-52
2021/05/04 07:54:10;;;;;;;3.13;2.10;;;;;;;12.51;39.70;95249.56;5047490;28;20087;-50
2021/05/04 07:56:37;;;;;;;7.88;2.10;;;;;;;12.54;39.78;95249.63;5068480;28;20056;-49
2021/05/04 07:59:03;;;;;;;4.50;2.60;;;;;;;12.59;40.03;95245.84;5033048;28;20053;-52
2021/05/04 08:01:29;;;;;;;6.85;2.17;;;;;;;12.77;39.20;95244.22;5031057;28;20069;-48
2021/05/04 08:03:56;;;;;;;4.45;2.40;;;;;;;12.87;38.84;95248.25;5031055;28;20049;-48
2021/05/04 08:06:24;;;;;;;5.72;2.28;;;;;;;12.82;38.63;95241.19;5030761;28;20691;-47
2021/05/04 08:08:50;;;;;;;3.58;2.10;;;;;;;12.91;38.86;95230.06;5030615;28;20058;-51
2021/05/04 08:11:17;;;;;;;4.05;2.10;;;;;;;13.10;39.09;95237.34;5030977;28;20601;-50
2021/05/04 08:13:45;;;;;;;3.40;2.10;;;;;;;13.01;38.33;95239.53;5030893;28;20367;-51
2021/05/04 08:16:13;;;;;;;3.63;2.17;;;;;;;12.94;38.43;95234.78;5031079;28;20049;-49
2021/05/04 08:18:43;;;;;;;2.63;1.75;;;;;;;12.98;37.96;95232.13;5048595;28;20051;-49
2021/05/04 08:21:10;;;;;;;2.90;2.08;;;;;;;13.15;38.35;95234.31;5050491;28;20052;-49
2021/05/04 08:23:36;;;;;;;5.15;2.30;;;;;;;13.33;38.27;95232.69;5050928;28;20052;-45
2021/05/04 08:26:03;;;;;;;3.45;1.88;;;;;;;13.37;37.28;95229.22;5045474;28;20056;-51
2021/05/04 08:28:29;;;;;;;3.72;2.00;;;;;;;13.38;38.31;95230.78;5044933;28;20464;-54
2021/05/04 08:30:56;;;;;;;3.22;2.10;;;;;;;13.45;38.28;95226.22;5054237;28;20053;-53
2021/05/04 08:33:22;;;;;;;6.15;2.00;;;;;;;13.62;38.08;95229.56;5054269;28;20052;-49
2021/05/04 08:35:49;;;;;;;3.70;2.33;;;;;;;13.42;37.66;95234.31;5054193;28;20463;-50
2021/05/04 08:38:15;;;;;;;4.47;2.53;;;;;;;13.27;38.18;95223.28;5037287;28;20446;-53
2021/05/04 08:40:43;;;;;;;2.45;1.85;;;;;;;13.63;37.45;95236.56;5032979;28;20045;-55
2021/05/04 08:43:10;;;;;;;5.65;2.55;;;;;;;13.56;37.26;95237.25;5034544;28;20100;-45
2021/05/04 08:45:40;;;;;;;2.70;1.80;;;;;;;13.61;36.82;95227.97;5034758;28;20053;-46
2021/05/04 08:48:07;;;;;;;3.63;2.40;;;;;;;13.63;37.43;95215.59;5033119;28;20056;-50
2021/05/04 08:50:38;;;;;;;4.68;2.03;;;;;;;13.75;37.04;95223.53;5034054;28;20049;-51
2021/05/04 08:53:05;;;;;;;2.97;1.95;;;;;;;13.80;35.92;95215.03;5034340;28;20079;-52
2021/05/04 08:55:31;;;;;;;3.95;2.00;;;;;;;14.07;36.40;95222.31;5048222;28;20060;-51
2021/05/04 08:58:02;;;;;;;2.58;1.70;;;;;;;14.22;36.76;95226.78;5047342;28;20525;-52
2021/05/04 09:00:49;;;;;;;4.05;2.10;;;;;;;13.99;36.69;95226.91;5033764;28;20482;-52
2021/05/04 09:03:23;;;;;;;3.63;2.00;;;;;;;14.00;36.41;95228.47;5033902;28;20079;-49
2021/05/04 09:06:05;;;;;;;3.83;2.00;;;;;;;14.21;36.08;95222.50;5033404;28;20495;-51
2021/05/04 09:19:39;;;;;;;3.88;1.92;;;;;;;14.43;34.45;95215.34;5033159;28;20370;-48
2021/05/04 09:22:05;;;;;;;4.70;1.98;;;;;;;14.78;35.16;95216.81;5032939;28;20425;-51
2021/05/04 09:24:42;;;;;;;7.20;1.90;;;;;;;14.80;33.49;95214.50;5033157;28;20060;-44
2021/05/04 09:27:16;;;;;;;5.20;2.20;;;;;;;14.66;32.35;95209.75;5032171;28;20127;-50
2021/05/04 09:29:45;;;;;;;5.38;1.70;;;;;;;15.00;31.93;95194.03;5032068;28;20057;-52
2021/05/04 09:32:18;;;;;;;7.20;1.92;;;;;;;15.13;29.94;95181.66;5032883;28;20048;-51
2021/05/04 09:34:53;;;;;;;5.18;2.25;;;;;;;15.10;28.82;95196.06;5032853;28;20065;-52
2021/05/04 09:37:48;;;;;;;2.08;1.42;;;;;;;15.02;27.79;95169.16;5032291;28;20521;-51
2021/05/04 09:40:24;;;;;;;8.25;1.80;;;;;;;15.14;28.01;95169.63;5022978;28;20103;-47
2021/05/04 09:43:12;;;;;;;5.03;1.95;;;;;;;15.13;27.93;95167.28;5032901;28;20053;-52
2021/05/04 09:45:43;;;;;;;4.03;2.20;;;;;;;15.23;27.68;95184.84;5048168;28;20049;-51
2021/05/04 09:48:22;;;;;;;5.57;2.03;;;;;;;15.11;27.97;95175.84;5032286;28;20132;-46
2021/05/04 09:51:08;;;;;;;3.90;1.70;;;;;;;15.03;28.06;95174.22;5031681;28;20053;-51
2021/05/04 09:56:17;;;;;;;5.38;1.70;;;;;;;15.01;26.90;95148.50;5032594;28;20054;-48
2021/05/04 09:58:50;;;;;;;4.45;1.73;;;;;;;15.08;27.47;95165.69;5046415;28;20151;-50
2021/05/04 10:01:19;;;;;;;3.88;1.70;;;;;;;15.25;27.64;95153.34;5052216;28;20048;-50
2021/05/04 10:03:48;;;;;;;5.38;1.90;;;;;;;15.05;27.80;95161.00;5052530;28;20072;-49
2021/05/04 10:06:16;;;;;;;5.80;1.77;;;;;;;14.90;27.92;95151.94;5039025;28;20059;-49
2021/05/04 10:08:44;;;;;;;8.27;1.77;;;;;;;15.00;27.55;95163.31;5031879;28;20107;-53
2021/05/04 10:11:13;;;;;;;5.05;1.80;;;;;;;15.25;28.40;95130.75;5031004;28;20539;-47
2021/05/04 10:13:41;;;;;;;8.80;1.83;;;;;;;15.47;28.10;95156.97;5031845;28;20053;-46
2021/05/04 10:16:09;;;;;;;3.83;1.70;;;;;;;15.13;28.55;95140.81;5032293;28;20057;-45
2021/05/04 10:18:37;;;;;;;4.80;1.60;;;;;;;15.20;28.84;95148.25;5031712;28;20081;-50
2021/05/04 10:21:06;;;;;;;6.15;1.90;;;;;;;15.18;29.04;95148.63;5032452;28;20033;-45
2021/05/04 10:23:35;;;;;;;3.88;1.83;;;;;;;15.08;28.32;95143.91;5032357;28;20057;-44
2021/05/04 10:26:04;;;;;;;5.30;1.90;;;;;;;14.93;28.13;95159.38;5032112;28;20115;-52
2021/05/04 10:28:33;;;;;;;4.10;1.52;;;;;;;15.28;29.16;95146.34;5044464;28;20057;-47
2021/05/04 10:31:08;;;;;;;3.60;1.80;;;;;;;15.10;29.18;95141.56;5051947;28;20041;-52
2021/05/04 10:33:40;;;;;;;4.57;1.67;;;;;;;15.33;28.76;95135.84;5052183;28;20110;-54
2021/05/04 10:36:33;;;;;;;3.90;1.77;;;;;;;15.45;29.23;95133.97;5048828;28;20048;-46
2021/05/04 10:39:01;;;;;;;4.97;1.75;;;;;;;15.27;29.61;95125.69;5031823;28;20049;-45
2021/05/04 10:41:28;;;;;;;3.60;1.90;;;;;;;15.36;29.44;95110.56;5032011;28;20762;-53
2021/05/04 10:44:07;;;;;;;4.47;1.70;;;;;;;15.61;30.21;95126.25;5032115;28;20062;-53
2021/05/04 10:46:42;;;;;;;2.55;1.55;;;;;;;15.17;29.66;95129.91;5039244;28;20048;-45
2021/05/04 10:49:16;;;;;;;2.22;1.30;;;;;;;15.31;30.02;95112.88;5051391;28;20048;-44
2021/05/04 10:51:48;;;;;;;5.22;1.90;;;;;;;15.46;29.90;95119.94;5049867;28;20060;-44
2021/05/04 10:54:17;;;;;;;2.45;1.80;;;;;;;15.38;29.65;95129.25;5051670;28;20056;-45
2021/05/04 10:56:56;;;;;;;2.47;1.20;;;;;;;15.35;29.63;95100.81;5035549;28;20511;-43
2021/05/04 10:59:25;;;;;;;3.85;1.48;;;;;;;15.38;29.59;95097.34;5031645;28;20045;-50
2021/05/04 11:02:10;;;;;;;5.22;1.60;;;;;;;15.61;30.41;95105.19;5031213;28;20041;-45
2021/05/04 11:04:45;;;;;;;2.28;1.50;;;;;;;15.96;30.64;95092.09;5031647;28;20049;-50
2021/05/04 11:07:12;;;;;;;6.68;2.03;;;;;;;15.95;30.40;95088.56;5031047;28;20111;-49
2021/05/04 11:09:41;;;;;;;3.03;1.50;;;;;;;15.97;30.39;95094.41;5031273;28;20076;-50
2021/05/04 11:12:09;;;;;;;2.60;1.50;;;;;;;15.88;30.30;95097.50;5031128;28;20108;-50
2021/05/04 11:14:39;;;;;;;3.60;1.60;;;;;;;16.19;29.98;95095.22;5031186;28;20060;-44
2021/05/04 11:17:08;;;;;;;3.15;1.63;;;;;;;16.07;30.41;95081.97;5031021;28;20529;-44
2021/05/04 11:19:39;;;;;;;3.15;1.60;;;;;;;16.20;30.44;95101.47;5031777;28;20053;-48
2021/05/04 11:22:14;;;;;;;3.38;1.73;;;;;;;16.45;29.49;95085.09;5034351;28;20139;-50
2021/05/04 11:24:53;;;;;;;2.40;1.58;;;;;;;16.29;30.12;95082.75;5051282;28;20061;-45
2021/05/04 11:27:25;;;;;;;3.15;1.60;;;;;;;15.88;30.70;95072.19;5047383;28;20054;-45
2021/05/04 11:29:55;;;;;;;2.42;1.52;;;;;;;16.05;30.82;95068.72;5031256;28;20064;-45
2021/05/04 11:32:38;;;;;;;2.97;1.58;;;;;;;16.40;30.91;95071.84;5031281;28;20076;-46
2021/05/04 11:35:06;;;;;;;3.00;1.60;;;;;;;17.21;30.23;95070.16;5033197;28;20668;-43
2021/05/04 11:37:46;;;;;;;3.60;1.52;;;;;;;16.73;28.81;95067.91;5049411;28;20055;-48
2021/05/04 11:40:25;;;;;;;2.28;1.40;;;;;;;16.25;29.89;95063.66;5051042;28;20045;-48
2021/05/04 11:42:55;;;;;;;3.50;1.52;;;;;;;15.85;30.55;95068.28;5051470;28;20502;-50
2021/05/04 11:45:21;;;;;;;2.53;1.60;;;;;;;15.87;30.80;95062.44;5045501;28;20119;-46
2021/05/04 11:47:53;;;;;;;3.33;1.65;;;;;;;16.26;29.87;95089.00;5031026;28;20061;-48
2021/05/04 11:50:28;;;;;;;3.05;1.60;;;;;;;15.99;30.58;95078.44;5031079;28;20045;-50
2021/05/04 11:52:58;;;;;;;2.40;1.48;;;;;;;16.26;30.17;95067.94;5031174;28;20068;-46
2021/05/04 11:55:37;;;;;;;2.80;1.70;;;;;;;15.85;30.73;95059.31;5030796;28;20103;-44
2021/05/04 11:58:14;;;;;;;2.53;1.38;;;;;;;16.07;30.65;95049.22;5030698;28;20073;-44
2021/05/04 12:00:41;;;;;;;2.05;1.30;;;;;;;16.25;30.89;95054.66;5031207;28;20053;-47